中部国際空港の過去48時間の天気

中部国際空港 (Chubu Centrair International)

現在時刻: 10/21 20:19 JST (10/21 11:19 UTC) 以下の時間は現地時間です。

過去48時間のMETAR気象情報
時間 風向 風速(m/s) 視程 気温(℃) 湿度(%) 気圧(hPa) 天気現象
21 20:00 5 7000m 18 94 1015
21 19:30 4 7000m 19 88 1014
21 19:00 4 7000m 19 88 1014
21 18:30 北北西 3 9000m 19 88 1014 弱い雨
21 18:00 北西 2 10km以上 19 88 1014 弱い雨
21 17:30 西北西 2 10km以上 19 88 1014 弱い雨
21 17:00 不定 1 9000m 19 88 1014 弱い雨
21 16:30 西 2 10km以上 20 83 1014 弱い雨
21 16:00 西 4 10km以上 20 83 1014 弱い雨
21 15:30 西北西 3 10km以上 20 78 1014 弱い雨
21 15:00 西北西 3 10km以上 21 73 1014 周辺でしゅう雨
21 14:30 西南西 2 10km以上 21 69 1014 弱いしゅう雨
21 14:00 不定 1 10km以上 21 69 1015 周辺でしゅう雨
21 13:30 北西 1 10km以上 21 69 1015
21 13:00 不定 1 10km以上 21 69 1015
21 12:30 2 10km以上 21 69 1015
21 12:00 北北西 2 10km以上 21 73 1015
21 11:30 北西 2 10km以上 21 69 1016
21 11:00 北西 3 10km以上 21 69 1016
21 10:30 不定 1 10km以上 21 69 1017
21 10:00 3 10km以上 21 69 1017
21 09:30 3 10km以上 20 73 1017
21 09:00 2 10km以上 20 78 1017
21 08:30 北北東 2 10km以上 20 73 1017
21 08:00 北北東 3 10km以上 19 83 1018
21 07:00 1 10km以上 18 83 1017
21 06:30 東北東 2 10km以上 19 78 1017
21 06:00 北北東 3 10km以上 18 77 1016
20 13:30 北西 7 10km以上 24 57 1015
20 13:00 北西 5 10km以上 24 57 1015
20 12:30 北北西 5 10km以上 25 54 1016
20 12:00 北西 5 10km以上 24 57 1016
20 11:30 北西 4 10km以上 24 57 1016
20 11:00 北西 3 10km以上 22 60 1016
20 10:30 北西 3 10km以上 22 65 1017
20 10:00 北北西 3 10km以上 22 65 1017
20 09:30 北西 7 10km以上 22 65 1017
20 09:00 北西 8 10km以上 22 65 1017
20 08:30 北西 8 10km以上 21 69 1017
20 08:00 北西 8 10km以上 21 69 1017
20 07:30 北西 9 10km以上 21 69 1017
20 07:00 北西 9 10km以上 21 69 1016
20 06:30 北西 9 10km以上 21 69 1016
20 06:00 北西 9 10km以上 21 69 1016
20 05:30 北西 8 10km以上 21 73 1016
20 05:00 北西 10 10km以上 21 73 1015
20 04:30 北西 9 10km以上 21 73 1015
RJGG 211100Z 35009KT 7000 RA FEW005 BKN035 18/17 Q1015 NOSIG
RJGG 211030Z 35008KT 7000 RA FEW005 SCT030 BKN050 19/17 Q1014 NOSIG
RJGG 211000Z 35008KT 7000 RA FEW005 SCT050 OVC090 19/17 Q1014 NOSIG
RJGG 210930Z 34006KT 9000 -RA FEW005 OVC080 19/17 Q1014 NOSIG
RJGG 210900Z 32004KT 9999 -RA FEW005 OVC080 19/17 Q1014 NOSIG
RJGG 210830Z 29003KT 180V320 9999 -RA FEW005 BKN040 OVC080 19/17 Q1014 NOSIG
RJGG 210800Z VRB02KT 9000 -RA FEW007 BKN040 OVC080 19/17 Q1014 BECMG 34005KT
RJGG 210730Z 27004KT 9999 -RA FEW020 BKN045 20/17 Q1014 NOSIG
RJGG 210700Z 27008KT 9999 -RA FEW020 BKN045 20/17 Q1014 NOSIG
RJGG 210630Z 29005KT 9999 -RA FEW020 BKN050 20/16 Q1014 NOSIG
RJGG 210600Z 29005KT 9999 VCSH FEW020 BKN050 21/16 Q1014 NOSIG
RJGG 210530Z 25004KT 9999 -SHRA FEW020 SCT030 BKN060 21/15 Q1014 BECMG 30005KT
RJGG 210500Z VRB01KT 9999 VCSH FEW020 SCT030 BKN060 21/15 Q1015 BECMG 30005KT
RJGG 210430Z 32002KT 9999 FEW030 BKN060 21/15 Q1015 NOSIG
RJGG 210400Z VRB02KT 9999 FEW030 BKN060 21/15 Q1015 NOSIG
RJGG 210330Z 35004KT 310V060 9999 FEW030 BKN060 21/15 Q1015 NOSIG
RJGG 210300Z 33004KT 300V060 9999 FEW020 BKN060 21/16 Q1015 NOSIG
RJGG 210230Z 32004KT 9999 FEW020 BKN060 21/15 Q1016 NOSIG
RJGG 210200Z 32005KT 9999 FEW020 BKN060 BKN/// 21/15 Q1016 NOSIG
RJGG 210130Z VRB02KT 9999 FEW020 BKN060 21/15 Q1017 BECMG 10006KT
RJGG 210100Z 35005KT 320V030 9999 FEW020 BKN060 BKN/// 21/15 Q1017 BECMG 10006KT
RJGG 210030Z 35006KT 9999 FEW020 BKN060 BKN/// 20/15 Q1017 NOSIG
RJGG 210000Z 36004KT 9999 FEW020 SCT060 BKN/// 20/16 Q1017 NOSIG
RJGG 202330Z 02004KT 350V060 9999 FEW020 BKN/// 20/15 Q1017 NOSIG
RJGG 202300Z 02005KT 360V070 9999 FEW020 BKN/// 19/16 Q1018 NOSIG
RJGG 202200Z 35002KT 9999 FEW020 BKN/// 18/15 Q1017 NOSIG
RJGG 202130Z 06003KT 9999 FEW020 SCT060 BKN/// 19/15 Q1017 NOSIG
RJGG 202100Z 03006KT 9999 FEW020 BKN/// 18/14 Q1016 NOSIG
RJGG 200430Z 31014KT 9999 FEW030 BKN/// 24/15 Q1015 NOSIG
RJGG 200400Z 31010KT 9999 FEW030 BKN/// 24/15 Q1015 NOSIG
RJGG 200330Z 33009KT 9999 FEW030 25/15 Q1016 NOSIG
RJGG 200300Z 32010KT 9999 FEW030 SCT/// 24/15 Q1016 NOSIG
RJGG 200230Z 31008KT 9999 FEW030 BKN120 24/15 Q1016 NOSIG
RJGG 200200Z 32005KT 9999 FEW030 BKN120 22/14 Q1016 NOSIG
RJGG 200130Z 32006KT 9999 FEW020 BKN130 22/15 Q1017 NOSIG
RJGG 200100Z 34005KT 9999 FEW020 SCT130 22/15 Q1017 NOSIG
RJGG 200030Z 32013KT 9999 FEW020 SCT150 22/15 Q1017 NOSIG
RJGG 200000Z 31015KT 9999 FEW020 BKN/// 22/15 Q1017 NOSIG
RJGG 192330Z 31016KT 9999 FEW020 BKN/// 21/15 Q1017 NOSIG
RJGG 192300Z 32016KT 9999 FEW020 BKN/// 21/15 Q1017 NOSIG
RJGG 192230Z 32018KT 9999 FEW020 BKN/// 21/15 Q1017 NOSIG
RJGG 192200Z 32018KT 9999 FEW020 BKN/// 21/15 Q1016 NOSIG
RJGG 192130Z 32018KT 9999 FEW020 BKN/// 21/15 Q1016 NOSIG
RJGG 192100Z 31017KT 9999 FEW020 BKN/// 21/15 Q1016 NOSIG
RJGG 192030Z 31016KT 9999 FEW010 BKN/// 21/16 Q1016 NOSIG
RJGG 192000Z 31019KT 9999 FEW010 SCT/// 21/16 Q1015 NOSIG
RJGG 191930Z 31018KT 9999 FEW010 SCT/// 21/16 Q1015 NOSIG